createdAt,value
2022-10-14T02:51:06.279Z,326.70
2022-10-14T02:53:33.305Z,435.50
2022-10-14T02:56:00.684Z,233.50
2022-10-14T02:58:27.679Z,313.38
2022-10-14T03:00:56.750Z,344.45
2022-10-14T03:03:26.086Z,277.90
2022-10-14T03:05:53.245Z,303.48
2022-10-14T03:08:22.932Z,265.00
2022-10-14T03:10:50.617Z,263.10
2022-10-14T03:13:17.702Z,390.35
2022-10-14T03:15:49.654Z,376.02
2022-10-14T03:18:18.537Z,418.73
2022-10-14T03:20:48.075Z,314.05
2022-10-14T03:23:28.436Z,411.30
2022-10-14T03:25:55.665Z,269.95
2022-10-14T03:28:27.400Z,289.50
2022-10-14T03:31:07.995Z,307.93
2022-10-14T03:33:51.737Z,352.35
2022-10-14T03:36:19.275Z,356.05
2022-10-14T03:38:52.021Z,449.83
2022-10-14T03:41:34.658Z,276.15
2022-10-14T03:44:02.730Z,269.35
2022-10-14T03:46:30.119Z,314.40
2022-10-14T03:48:59.231Z,380.30
2022-10-14T03:51:27.015Z,430.65
2022-10-14T03:54:07.089Z,267.45
2022-10-14T03:56:34.229Z,286.90
2022-10-14T03:59:01.673Z,291.92
2022-10-14T04:01:28.833Z,427.70
2022-10-14T04:04:09.539Z,278.88
2022-10-14T04:06:37.791Z,220.27
2022-10-14T04:09:08.199Z,279.60
2022-10-14T04:11:39.149Z,252.80
2022-10-14T04:14:10.218Z,295.98
2022-10-14T04:16:49.717Z,253.00
2022-10-14T04:19:17.492Z,269.98
2022-10-14T04:21:44.696Z,270.60
2022-10-14T04:24:13.129Z,248.70
2022-10-14T04:26:50.398Z,263.80
2022-10-14T04:29:25.534Z,244.40
2022-10-14T04:32:02.489Z,255.25
2022-10-14T04:34:30.229Z,264.10
2022-10-14T04:36:58.120Z,257.80
2022-10-14T04:39:44.384Z,217.73
2022-10-14T04:42:12.516Z,226.07
2022-10-14T04:44:40.767Z,223.00
2022-10-14T04:47:10.525Z,212.00
2022-10-14T04:49:38.026Z,226.35
2022-10-14T04:52:17.256Z,263.05
2022-10-14T04:54:54.875Z,229.15
2022-10-14T04:57:33.417Z,254.15
2022-10-14T05:00:01.414Z,219.85
2022-10-14T05:03:00.654Z,238.98
2022-10-14T05:05:33.375Z,261.25
2022-10-14T05:08:03.804Z,279.70
2022-10-14T05:10:38.253Z,226.38
2022-10-14T05:13:10.122Z,231.55
2022-10-14T05:15:47.776Z,210.48
2022-10-14T05:18:15.975Z,217.98
2022-10-14T05:20:51.689Z,256.48
2022-10-14T05:23:22.040Z,233.10
2022-10-14T05:25:54.463Z,248.10
2022-10-14T05:28:23.481Z,236.20
2022-10-14T05:30:51.104Z,236.35
2022-10-14T05:33:19.420Z,261.52
2022-10-14T05:35:58.576Z,245.13
2022-10-14T05:38:26.659Z,242.38
2022-10-14T05:40:56.382Z,253.32
2022-10-14T05:43:32.135Z,198.35
2022-10-14T05:46:01.091Z,202.40
2022-10-14T05:48:31.303Z,190.02
2022-10-14T05:51:02.246Z,184.63
2022-10-14T05:53:33.406Z,200.30
2022-10-14T05:56:08.240Z,153.48
2022-10-14T05:58:37.775Z,153.75
2022-10-14T06:01:08.607Z,143.27
2022-10-14T06:03:38.850Z,133.70
2022-10-14T06:06:06.982Z,124.40
2022-10-14T06:08:34.043Z,123.50
2022-10-14T06:11:04.982Z,98.85
2022-10-14T06:13:33.188Z,79.78
2022-10-14T06:16:04.086Z,84.32
2022-10-14T06:18:31.214Z,73.63
2022-10-14T06:20:58.421Z,55.10
2022-10-14T06:23:25.419Z,58.45
2022-10-14T06:25:53.324Z,62.95
2022-10-14T06:28:21.774Z,68.43
2022-10-14T06:30:50.101Z,59.03
2022-10-14T06:33:17.152Z,66.85
2022-10-14T06:35:44.255Z,62.95
2022-10-14T06:38:11.264Z,67.35
2022-10-14T06:40:38.259Z,51.55
2022-10-14T06:43:05.440Z,55.83
2022-10-14T06:45:33.766Z,50.17
2022-10-14T06:48:01.126Z,54.17
2022-10-14T06:50:28.086Z,53.75
2022-10-14T06:52:55.317Z,51.40
2022-10-14T06:55:22.355Z,58.38
2022-10-14T06:57:49.292Z,54.33
2022-10-14T07:00:17.702Z,51.75
2022-10-14T07:02:46.095Z,46.75
2022-10-14T07:05:13.398Z,48.53
2022-10-14T07:07:40.336Z,45.30
2022-10-14T07:10:08.011Z,44.67
2022-10-14T07:12:35.013Z,46.33
2022-10-14T07:15:02.750Z,46.97
2022-10-14T07:17:29.776Z,45.10
2022-10-14T07:19:58.572Z,46.75
2022-10-14T07:22:25.660Z,44.10
2022-10-14T07:24:52.665Z,42.63
2022-10-14T07:27:20.833Z,48.15
2022-10-14T07:29:48.352Z,40.33
2022-10-14T07:32:15.504Z,38.25
2022-10-14T07:34:42.460Z,45.80
2022-10-14T07:37:11.219Z,41.58
2022-10-14T07:39:38.230Z,42.05
2022-10-14T07:42:05.515Z,36.50
2022-10-14T07:44:32.466Z,35.35
2022-10-14T07:47:01.939Z,39.15
2022-10-14T07:49:29.528Z,36.60
2022-10-14T07:51:57.010Z,41.50
2022-10-14T07:54:30.025Z,41.10
2022-10-14T07:56:58.024Z,46.22
2022-10-14T07:59:25.699Z,44.92
2022-10-14T08:01:53.444Z,45.17
2022-10-14T08:04:20.667Z,46.10
2022-10-14T08:06:48.645Z,43.42
2022-10-14T08:09:16.568Z,45.90
2022-10-14T08:11:46.137Z,41.67
2022-10-14T08:14:13.715Z,38.35
2022-10-14T08:16:41.117Z,41.30
2022-10-14T08:19:14.146Z,39.75
2022-10-14T08:21:41.891Z,40.00
2022-10-14T08:24:09.562Z,38.72
2022-10-14T08:26:38.218Z,38.40
2022-10-14T08:29:10.113Z,39.67
2022-10-14T08:31:39.731Z,34.45
2022-10-14T08:34:07.335Z,35.15
2022-10-14T08:36:34.276Z,32.95
2022-10-14T08:39:01.257Z,32.63
2022-10-14T08:42:02.793Z,38.10
2022-10-14T08:47:04.708Z,31.40
2022-10-14T08:49:37.853Z,34.10
2022-10-14T08:52:09.336Z,28.58
2022-10-14T08:54:39.511Z,29.67
2022-10-14T08:57:14.509Z,26.05
2022-10-14T08:59:43.271Z,24.02
2022-10-14T09:02:21.703Z,25.73
2022-10-14T09:04:49.075Z,27.13
2022-10-14T09:07:18.680Z,23.80
2022-10-14T09:09:50.227Z,21.95
2022-10-14T09:12:24.258Z,22.80
2022-10-14T09:15:04.114Z,21.80
2022-10-14T09:17:38.015Z,24.00
2022-10-14T09:20:16.825Z,24.77
2022-10-14T09:22:44.718Z,22.15
2022-10-14T09:25:13.806Z,23.73
2022-10-14T09:27:41.108Z,21.42
2022-10-14T09:30:15.116Z,21.58
2022-10-14T09:32:44.459Z,24.27
2022-10-14T09:35:19.892Z,23.17
2022-10-14T09:37:46.907Z,24.42
2022-10-14T09:40:20.142Z,21.77
2022-10-14T09:42:51.892Z,22.35
2022-10-14T09:45:25.159Z,26.15
2022-10-14T09:47:56.573Z,28.92
2022-10-14T09:50:26.998Z,41.03
2022-10-14T09:52:59.980Z,29.42
2022-10-14T09:55:27.776Z,28.02
2022-10-14T09:58:07.021Z,28.90
2022-10-14T10:00:37.724Z,27.80
2022-10-14T10:03:07.272Z,22.23
2022-10-14T10:05:35.992Z,26.33
2022-10-14T10:08:15.594Z,24.00
2022-10-14T10:10:56.532Z,27.23
2022-10-14T10:13:32.629Z,22.90
2022-10-14T10:16:03.448Z,25.00
2022-10-14T10:21:08.069Z,19.65
2022-10-14T10:23:36.590Z,18.90
2022-10-14T10:26:18.568Z,18.35
2022-10-14T10:31:50.860Z,18.50
2022-10-14T10:49:58.066Z,15.93
2022-10-14T16:19:58.987Z,29.50
2022-10-14T16:34:43.026Z,31.35
2022-10-14T16:37:10.797Z,40.35
2022-10-14T16:52:13.015Z,38.13
2022-10-14T17:16:15.811Z,42.15
2022-10-14T17:18:43.372Z,35.70
2022-10-14T18:51:40.255Z,43.90
2022-10-14T18:59:09.080Z,45.00
2022-10-14T19:04:05.743Z,60.13
2022-10-14T21:16:33.429Z,58.35
2022-10-14T23:04:47.281Z,92.03
2022-10-14T23:07:15.444Z,92.80
2022-10-14T23:09:43.882Z,145.57
2022-10-14T23:12:10.910Z,117.25
2022-10-14T23:14:37.886Z,108.13
2022-10-14T23:17:04.852Z,111.57
2022-10-14T23:23:24.921Z,104.90
2022-10-14T23:33:12.953Z,102.65
2022-10-14T23:35:40.286Z,100.32
